sensor_id;sensor_type;location;lat;lon;timestamp;P1;durP1;ratioP1;P2;durP2;ratioP2
12956;SDS011;6543;48.836;10.092;2022-11-12T00:00:10;14.00;;;11.77;;
12956;SDS011;6543;48.836;10.092;2022-11-12T00:02:37;17.97;;;14.00;;
12956;SDS011;6543;48.836;10.092;2022-11-12T00:05:06;15.80;;;12.97;;
12956;SDS011;6543;48.836;10.092;2022-11-12T00:07:33;21.60;;;14.13;;
12956;SDS011;6543;48.836;10.092;2022-11-12T00:10:00;17.33;;;13.63;;
12956;SDS011;6543;48.836;10.092;2022-11-12T00:12:28;19.07;;;13.80;;
12956;SDS011;6543;48.836;10.092;2022-11-12T00:14:55;19.60;;;13.73;;
12956;SDS011;6543;48.836;10.092;2022-11-12T00:17:22;15.80;;;12.73;;
12956;SDS011;6543;48.836;10.092;2022-11-12T00:19:49;19.07;;;13.30;;
12956;SDS011;6543;48.836;10.092;2022-11-12T00:22:17;18.33;;;12.93;;
12956;SDS011;6543;48.836;10.092;2022-11-12T00:24:44;17.07;;;13.83;;
12956;SDS011;6543;48.836;10.092;2022-11-12T00:27:11;19.20;;;14.33;;
12956;SDS011;6543;48.836;10.092;2022-11-12T00:29:38;21.30;;;14.73;;
12956;SDS011;6543;48.836;10.092;2022-11-12T00:32:05;19.90;;;15.30;;
12956;SDS011;6543;48.836;10.092;2022-11-12T00:34:32;19.37;;;14.07;;
12956;SDS011;6543;48.836;10.092;2022-11-12T00:36:59;16.90;;;13.53;;
12956;SDS011;6543;48.836;10.092;2022-11-12T00:39:28;15.50;;;12.73;;
12956;SDS011;6543;48.836;10.092;2022-11-12T00:41:55;18.33;;;13.67;;
12956;SDS011;6543;48.836;10.092;2022-11-12T00:44:22;19.60;;;12.87;;
12956;SDS011;6543;48.836;10.092;2022-11-12T00:46:49;16.47;;;12.43;;
12956;SDS011;6543;48.836;10.092;2022-11-12T00:49:16;18.57;;;12.73;;
12956;SDS011;6543;48.836;10.092;2022-11-12T00:51:43;18.73;;;11.70;;
12956;SDS011;6543;48.836;10.092;2022-11-12T00:54:09;17.43;;;11.77;;
12956;SDS011;6543;48.836;10.092;2022-11-12T00:56:38;15.60;;;12.40;;
12956;SDS011;6543;48.836;10.092;2022-11-12T00:59:04;16.87;;;12.27;;
12956;SDS011;6543;48.836;10.092;2022-11-12T01:01:31;15.43;;;12.67;;
12956;SDS011;6543;48.836;10.092;2022-11-12T01:03:59;17.47;;;12.53;;
12956;SDS011;6543;48.836;10.092;2022-11-12T01:06:26;13.90;;;11.33;;
12956;SDS011;6543;48.836;10.092;2022-11-12T01:08:53;15.47;;;11.47;;
12956;SDS011;6543;48.836;10.092;2022-11-12T01:11:21;16.10;;;10.27;;
12956;SDS011;6543;48.836;10.092;2022-11-12T01:13:54;14.20;;;10.60;;
12956;SDS011;6543;48.836;10.092;2022-11-12T01:16:27;11.50;;;10.30;;
12956;SDS011;6543;48.836;10.092;2022-11-12T01:18:56;14.53;;;11.03;;
12956;SDS011;6543;48.836;10.092;2022-11-12T01:21:27;10.33;;;9.07;;
12956;SDS011;6543;48.836;10.092;2022-11-12T01:23:56;19.83;;;9.37;;
12956;SDS011;6543;48.836;10.092;2022-11-12T01:26:23;19.50;;;9.90;;
12956;SDS011;6543;48.836;10.092;2022-11-12T01:28:53;15.53;;;9.50;;
12956;SDS011;6543;48.836;10.092;2022-11-12T01:31:21;12.97;;;8.67;;
12956;SDS011;6543;48.836;10.092;2022-11-12T01:33:51;13.97;;;8.50;;
12956;SDS011;6543;48.836;10.092;2022-11-12T01:36:19;10.17;;;8.23;;
12956;SDS011;6543;48.836;10.092;2022-11-12T01:38:46;8.87;;;7.10;;
12956;SDS011;6543;48.836;10.092;2022-11-12T01:41:15;9.53;;;7.70;;
12956;SDS011;6543;48.836;10.092;2022-11-12T01:43:43;8.77;;;7.33;;
12956;SDS011;6543;48.836;10.092;2022-11-12T01:46:14;10.53;;;7.83;;
12956;SDS011;6543;48.836;10.092;2022-11-12T01:48:46;9.20;;;6.93;;
12956;SDS011;6543;48.836;10.092;2022-11-12T01:51:17;9.57;;;8.17;;
12956;SDS011;6543;48.836;10.092;2022-11-12T01:53:46;10.90;;;7.77;;
12956;SDS011;6543;48.836;10.092;2022-11-12T01:56:17;8.27;;;7.23;;
12956;SDS011;6543;48.836;10.092;2022-11-12T01:58:45;7.70;;;6.93;;
12956;SDS011;6543;48.836;10.092;2022-11-12T02:01:15;8.03;;;7.23;;
12956;SDS011;6543;48.836;10.092;2022-11-12T02:03:42;8.27;;;7.10;;
12956;SDS011;6543;48.836;10.092;2022-11-12T02:06:11;8.43;;;7.47;;
12956;SDS011;6543;48.836;10.092;2022-11-12T02:08:40;9.07;;;7.23;;
12956;SDS011;6543;48.836;10.092;2022-11-12T02:11:09;11.30;;;7.87;;
12956;SDS011;6543;48.836;10.092;2022-11-12T02:13:38;8.20;;;6.97;;
12956;SDS011;6543;48.836;10.092;2022-11-12T02:16:24;9.93;;;7.23;;
12956;SDS011;6543;48.836;10.092;2022-11-12T02:18:52;7.07;;;6.23;;
12956;SDS011;6543;48.836;10.092;2022-11-12T02:21:20;7.50;;;6.63;;
12956;SDS011;6543;48.836;10.092;2022-11-12T02:23:55;6.70;;;6.00;;
12956;SDS011;6543;48.836;10.092;2022-11-12T02:26:23;7.10;;;6.27;;
12956;SDS011;6543;48.836;10.092;2022-11-12T02:28:51;8.87;;;6.27;;
12956;SDS011;6543;48.836;10.092;2022-11-12T02:31:18;7.50;;;6.07;;
12956;SDS011;6543;48.836;10.092;2022-11-12T02:33:44;7.70;;;6.47;;
12956;SDS011;6543;48.836;10.092;2022-11-12T02:36:11;5.93;;;5.33;;
12956;SDS011;6543;48.836;10.092;2022-11-12T02:38:39;7.47;;;6.70;;
12956;SDS011;6543;48.836;10.092;2022-11-12T02:41:06;9.43;;;6.80;;
12956;SDS011;6543;48.836;10.092;2022-11-12T02:43:33;8.17;;;6.47;;
12956;SDS011;6543;48.836;10.092;2022-11-12T02:46:00;7.17;;;6.47;;
12956;SDS011;6543;48.836;10.092;2022-11-12T02:48:26;6.73;;;6.13;;
12956;SDS011;6543;48.836;10.092;2022-11-12T02:50:53;5.70;;;5.17;;
12956;SDS011;6543;48.836;10.092;2022-11-12T02:53:20;5.63;;;5.17;;
12956;SDS011;6543;48.836;10.092;2022-11-12T02:55:48;6.70;;;4.97;;
12956;SDS011;6543;48.836;10.092;2022-11-12T02:58:15;5.60;;;5.00;;
12956;SDS011;6543;48.836;10.092;2022-11-12T03:00:42;5.93;;;4.97;;
12956;SDS011;6543;48.836;10.092;2022-11-12T03:03:09;8.03;;;5.20;;
12956;SDS011;6543;48.836;10.092;2022-11-12T03:05:35;5.53;;;5.00;;
12956;SDS011;6543;48.836;10.092;2022-11-12T03:08:03;6.00;;;5.40;;
12956;SDS011;6543;48.836;10.092;2022-11-12T03:10:32;5.73;;;5.23;;
12956;SDS011;6543;48.836;10.092;2022-11-12T03:13:00;7.07;;;6.10;;
12956;SDS011;6543;48.836;10.092;2022-11-12T03:15:28;8.57;;;6.00;;
12956;SDS011;6543;48.836;10.092;2022-11-12T03:17:55;6.80;;;6.10;;
12956;SDS011;6543;48.836;10.092;2022-11-12T03:20:22;6.07;;;5.47;;
12956;SDS011;6543;48.836;10.092;2022-11-12T03:22:56;5.27;;;4.77;;
12956;SDS011;6543;48.836;10.092;2022-11-12T03:25:24;5.07;;;4.67;;
12956;SDS011;6543;48.836;10.092;2022-11-12T03:27:55;5.73;;;5.13;;
12956;SDS011;6543;48.836;10.092;2022-11-12T03:30:25;5.63;;;5.03;;
12956;SDS011;6543;48.836;10.092;2022-11-12T03:32:53;6.40;;;4.57;;
12956;SDS011;6543;48.836;10.092;2022-11-12T03:35:20;5.50;;;4.87;;
12956;SDS011;6543;48.836;10.092;2022-11-12T03:37:47;5.40;;;4.80;;
12956;SDS011;6543;48.836;10.092;2022-11-12T03:40:16;5.10;;;4.60;;
12956;SDS011;6543;48.836;10.092;2022-11-12T03:42:43;7.57;;;5.00;;
12956;SDS011;6543;48.836;10.092;2022-11-12T03:45:11;4.90;;;4.50;;
12956;SDS011;6543;48.836;10.092;2022-11-12T03:47:41;5.23;;;4.70;;
12956;SDS011;6543;48.836;10.092;2022-11-12T03:50:09;4.93;;;4.10;;
12956;SDS011;6543;48.836;10.092;2022-11-12T03:52:36;4.80;;;4.37;;
12956;SDS011;6543;48.836;10.092;2022-11-12T03:55:03;5.57;;;4.53;;
12956;SDS011;6543;48.836;10.092;2022-11-12T03:57:31;5.87;;;5.27;;
12956;SDS011;6543;48.836;10.092;2022-11-12T03:59:58;4.57;;;4.17;;
12956;SDS011;6543;48.836;10.092;2022-11-12T04:02:24;5.67;;;4.17;;
12956;SDS011;6543;48.836;10.092;2022-11-12T04:04:55;6.00;;;4.70;;
12956;SDS011;6543;48.836;10.092;2022-11-12T04:07:40;4.63;;;4.20;;
12956;SDS011;6543;48.836;10.092;2022-11-12T04:10:24;11.93;;;6.67;;
12956;SDS011;6543;48.836;10.092;2022-11-12T04:12:53;10.50;;;5.37;;
12956;SDS011;6543;48.836;10.092;2022-11-12T04:15:37;5.77;;;4.70;;
12956;SDS011;6543;48.836;10.092;2022-11-12T04:18:04;6.47;;;4.23;;
12956;SDS011;6543;48.836;10.092;2022-11-12T04:20:49;7.13;;;3.90;;
12956;SDS011;6543;48.836;10.092;2022-11-12T04:23:34;4.13;;;3.70;;
12956;SDS011;6543;48.836;10.092;2022-11-12T04:26:00;4.20;;;3.80;;
12956;SDS011;6543;48.836;10.092;2022-11-12T04:28:45;7.90;;;4.07;;
12956;SDS011;6543;48.836;10.092;2022-11-12T04:31:26;4.83;;;4.33;;
12956;SDS011;6543;48.836;10.092;2022-11-12T04:33:52;8.50;;;4.60;;
12956;SDS011;6543;48.836;10.092;2022-11-12T04:36:20;4.03;;;3.70;;
12956;SDS011;6543;48.836;10.092;2022-11-12T04:38:47;4.40;;;3.47;;
12956;SDS011;6543;48.836;10.092;2022-11-12T04:41:14;4.07;;;3.67;;
12956;SDS011;6543;48.836;10.092;2022-11-12T04:43:58;8.67;;;3.73;;
12956;SDS011;6543;48.836;10.092;2022-11-12T04:46:43;3.80;;;3.07;;
12956;SDS011;6543;48.836;10.092;2022-11-12T04:49:09;3.27;;;2.97;;
12956;SDS011;6543;48.836;10.092;2022-11-12T04:51:38;4.07;;;3.53;;
12956;SDS011;6543;48.836;10.092;2022-11-12T04:54:22;3.77;;;3.20;;
12956;SDS011;6543;48.836;10.092;2022-11-12T04:56:49;4.17;;;3.77;;
12956;SDS011;6543;48.836;10.092;2022-11-12T04:59:15;5.37;;;3.40;;
12956;SDS011;6543;48.836;10.092;2022-11-12T05:01:42;5.03;;;3.87;;
12956;SDS011;6543;48.836;10.092;2022-11-12T05:04:09;6.13;;;3.17;;
12956;SDS011;6543;48.836;10.092;2022-11-12T05:06:37;3.73;;;3.27;;
12956;SDS011;6543;48.836;10.092;2022-11-12T05:09:16;4.07;;;3.47;;
12956;SDS011;6543;48.836;10.092;2022-11-12T05:11:43;6.23;;;2.93;;
12956;SDS011;6543;48.836;10.092;2022-11-12T05:14:10;7.03;;;3.00;;
12956;SDS011;6543;48.836;10.092;2022-11-12T05:16:37;3.63;;;3.00;;
12956;SDS011;6543;48.836;10.092;2022-11-12T05:19:04;3.23;;;2.93;;
12956;SDS011;6543;48.836;10.092;2022-11-12T05:21:31;3.10;;;2.90;;
12956;SDS011;6543;48.836;10.092;2022-11-12T05:24:17;5.70;;;3.37;;
12956;SDS011;6543;48.836;10.092;2022-11-12T05:26:43;7.50;;;3.80;;
12956;SDS011;6543;48.836;10.092;2022-11-12T05:29:10;4.77;;;4.23;;
12956;SDS011;6543;48.836;10.092;2022-11-12T05:31:37;3.50;;;3.20;;
12956;SDS011;6543;48.836;10.092;2022-11-12T05:34:04;3.90;;;3.50;;
12956;SDS011;6543;48.836;10.092;2022-11-12T05:36:31;3.63;;;3.30;;
12956;SDS011;6543;48.836;10.092;2022-11-12T05:38:58;3.87;;;3.47;;
12956;SDS011;6543;48.836;10.092;2022-11-12T05:41:26;3.43;;;3.13;;
12956;SDS011;6543;48.836;10.092;2022-11-12T05:43:53;5.83;;;3.97;;
12956;SDS011;6543;48.836;10.092;2022-11-12T05:46:20;6.00;;;5.40;;
12956;SDS011;6543;48.836;10.092;2022-11-12T05:48:47;4.30;;;3.90;;
12956;SDS011;6543;48.836;10.092;2022-11-12T05:51:13;3.67;;;3.37;;
12956;SDS011;6543;48.836;10.092;2022-11-12T05:53:40;4.20;;;3.80;;
12956;SDS011;6543;48.836;10.092;2022-11-12T05:56:07;5.03;;;4.53;;
12956;SDS011;6543;48.836;10.092;2022-11-12T05:58:36;6.00;;;4.30;;
12956;SDS011;6543;48.836;10.092;2022-11-12T06:01:04;7.30;;;4.50;;
12956;SDS011;6543;48.836;10.092;2022-11-12T06:03:30;5.00;;;4.50;;
12956;SDS011;6543;48.836;10.092;2022-11-12T06:05:58;6.00;;;4.80;;
12956;SDS011;6543;48.836;10.092;2022-11-12T06:08:25;5.40;;;4.90;;
12956;SDS011;6543;48.836;10.092;2022-11-12T06:10:52;4.90;;;4.33;;
12956;SDS011;6543;48.836;10.092;2022-11-12T06:13:20;5.00;;;4.50;;
12956;SDS011;6543;48.836;10.092;2022-11-12T06:15:49;5.83;;;4.43;;
12956;SDS011;6543;48.836;10.092;2022-11-12T06:18:16;5.50;;;4.67;;
12956;SDS011;6543;48.836;10.092;2022-11-12T06:20:43;6.57;;;4.43;;
12956;SDS011;6543;48.836;10.092;2022-11-12T06:23:30;5.43;;;4.90;;
12956;SDS011;6543;48.836;10.092;2022-11-12T06:25:57;5.77;;;4.80;;
12956;SDS011;6543;48.836;10.092;2022-11-12T06:28:24;6.60;;;5.80;;
12956;SDS011;6543;48.836;10.092;2022-11-12T06:30:52;6.77;;;5.40;;
12956;SDS011;6543;48.836;10.092;2022-11-12T06:33:19;9.70;;;5.50;;
12956;SDS011;6543;48.836;10.092;2022-11-12T06:35:46;6.93;;;5.63;;
12956;SDS011;6543;48.836;10.092;2022-11-12T06:38:13;5.90;;;5.30;;
12956;SDS011;6543;48.836;10.092;2022-11-12T06:40:40;6.77;;;5.30;;
12956;SDS011;6543;48.836;10.092;2022-11-12T06:43:07;5.80;;;5.10;;
12956;SDS011;6543;48.836;10.092;2022-11-12T06:45:35;5.67;;;4.63;;
12956;SDS011;6543;48.836;10.092;2022-11-12T06:48:04;6.60;;;5.00;;
12956;SDS011;6543;48.836;10.092;2022-11-12T06:50:30;5.70;;;5.17;;
12956;SDS011;6543;48.836;10.092;2022-11-12T06:52:57;4.37;;;4.07;;
12956;SDS011;6543;48.836;10.092;2022-11-12T06:55:24;5.77;;;4.33;;
12956;SDS011;6543;48.836;10.092;2022-11-12T06:57:51;13.33;;;5.87;;
12956;SDS011;6543;48.836;10.092;2022-11-12T07:00:18;7.87;;;5.20;;
12956;SDS011;6543;48.836;10.092;2022-11-12T07:02:45;6.57;;;5.27;;
12956;SDS011;6543;48.836;10.092;2022-11-12T07:05:13;5.57;;;4.90;;
12956;SDS011;6543;48.836;10.092;2022-11-12T07:07:40;7.57;;;5.40;;
12956;SDS011;6543;48.836;10.092;2022-11-12T07:10:08;5.17;;;4.67;;
12956;SDS011;6543;48.836;10.092;2022-11-12T07:12:35;7.37;;;5.00;;
12956;SDS011;6543;48.836;10.092;2022-11-12T07:15:01;6.83;;;4.73;;
12956;SDS011;6543;48.836;10.092;2022-11-12T07:17:29;5.00;;;4.60;;
12956;SDS011;6543;48.836;10.092;2022-11-12T07:19:56;5.43;;;4.73;;
12956;SDS011;6543;48.836;10.092;2022-11-12T07:22:24;8.60;;;4.83;;
12956;SDS011;6543;48.836;10.092;2022-11-12T07:24:51;6.40;;;4.73;;
12956;SDS011;6543;48.836;10.092;2022-11-12T07:27:17;8.33;;;4.97;;
12956;SDS011;6543;48.836;10.092;2022-11-12T07:29:44;4.23;;;3.83;;
12956;SDS011;6543;48.836;10.092;2022-11-12T07:32:11;5.07;;;3.80;;
12956;SDS011;6543;48.836;10.092;2022-11-12T07:34:38;4.37;;;3.90;;
12956;SDS011;6543;48.836;10.092;2022-11-12T07:37:05;4.53;;;3.77;;
12956;SDS011;6543;48.836;10.092;2022-11-12T07:39:34;6.40;;;4.33;;
12956;SDS011;6543;48.836;10.092;2022-11-12T07:42:00;7.57;;;4.43;;
12956;SDS011;6543;48.836;10.092;2022-11-12T07:44:27;4.97;;;4.47;;
12956;SDS011;6543;48.836;10.092;2022-11-12T07:46:54;4.13;;;3.73;;
12956;SDS011;6543;48.836;10.092;2022-11-12T07:49:21;4.50;;;3.93;;
12956;SDS011;6543;48.836;10.092;2022-11-12T07:51:48;5.50;;;4.17;;
12956;SDS011;6543;48.836;10.092;2022-11-12T07:54:14;4.43;;;3.50;;
12956;SDS011;6543;48.836;10.092;2022-11-12T07:56:43;7.30;;;3.70;;
12956;SDS011;6543;48.836;10.092;2022-11-12T07:59:10;5.07;;;4.30;;
12956;SDS011;6543;48.836;10.092;2022-11-12T08:01:37;11.23;;;4.33;;
12956;SDS011;6543;48.836;10.092;2022-11-12T08:04:06;6.83;;;4.60;;
12956;SDS011;6543;48.836;10.092;2022-11-12T08:06:35;8.10;;;5.47;;
12956;SDS011;6543;48.836;10.092;2022-11-12T08:09:03;7.03;;;4.83;;
12956;SDS011;6543;48.836;10.092;2022-11-12T08:11:31;5.70;;;4.40;;
12956;SDS011;6543;48.836;10.092;2022-11-12T08:14:00;4.93;;;3.60;;
12956;SDS011;6543;48.836;10.092;2022-11-12T08:16:27;4.20;;;3.67;;
12956;SDS011;6543;48.836;10.092;2022-11-12T08:18:54;3.80;;;3.40;;
12956;SDS011;6543;48.836;10.092;2022-11-12T08:21:21;4.30;;;3.53;;
12956;SDS011;6543;48.836;10.092;2022-11-12T08:23:48;3.87;;;3.47;;
12956;SDS011;6543;48.836;10.092;2022-11-12T08:26:15;3.90;;;3.60;;
12956;SDS011;6543;48.836;10.092;2022-11-12T08:28:44;5.03;;;4.03;;
12956;SDS011;6543;48.836;10.092;2022-11-12T08:31:13;3.63;;;3.33;;
12956;SDS011;6543;48.836;10.092;2022-11-12T08:33:41;4.20;;;3.30;;
12956;SDS011;6543;48.836;10.092;2022-11-12T08:36:09;5.20;;;2.93;;
12956;SDS011;6543;48.836;10.092;2022-11-12T08:38:37;4.93;;;2.90;;
12956;SDS011;6543;48.836;10.092;2022-11-12T08:41:05;3.00;;;2.67;;
12956;SDS011;6543;48.836;10.092;2022-11-12T08:43:34;3.23;;;2.93;;
12956;SDS011;6543;48.836;10.092;2022-11-12T08:46:01;3.60;;;2.83;;
12956;SDS011;6543;48.836;10.092;2022-11-12T08:48:30;2.93;;;2.70;;
12956;SDS011;6543;48.836;10.092;2022-11-12T08:50:59;3.07;;;2.77;;
12956;SDS011;6543;48.836;10.092;2022-11-12T08:53:26;8.77;;;3.60;;
12956;SDS011;6543;48.836;10.092;2022-11-12T08:55:53;3.30;;;3.00;;
12956;SDS011;6543;48.836;10.092;2022-11-12T08:58:21;4.60;;;3.30;;
12956;SDS011;6543;48.836;10.092;2022-11-12T09:00:48;4.30;;;3.67;;
12956;SDS011;6543;48.836;10.092;2022-11-12T09:03:16;4.87;;;3.33;;
12956;SDS011;6543;48.836;10.092;2022-11-12T09:05:46;6.00;;;3.60;;
12956;SDS011;6543;48.836;10.092;2022-11-12T09:08:13;3.73;;;3.43;;
12956;SDS011;6543;48.836;10.092;2022-11-12T09:10:42;4.87;;;3.73;;
12956;SDS011;6543;48.836;10.092;2022-11-12T09:13:09;4.93;;;3.83;;
12956;SDS011;6543;48.836;10.092;2022-11-12T09:15:36;7.47;;;4.03;;
12956;SDS011;6543;48.836;10.092;2022-11-12T09:18:03;5.17;;;3.83;;
12956;SDS011;6543;48.836;10.092;2022-11-12T09:20:31;4.33;;;3.93;;
12956;SDS011;6543;48.836;10.092;2022-11-12T09:23:00;4.13;;;3.80;;
12956;SDS011;6543;48.836;10.092;2022-11-12T09:25:29;18.17;;;7.67;;
12956;SDS011;6543;48.836;10.092;2022-11-12T09:27:56;5.43;;;4.03;;
12956;SDS011;6543;48.836;10.092;2022-11-12T09:30:23;5.30;;;4.30;;
12956;SDS011;6543;48.836;10.092;2022-11-12T09:32:55;3.37;;;3.07;;
12956;SDS011;6543;48.836;10.092;2022-11-12T09:35:22;3.43;;;3.13;;
12956;SDS011;6543;48.836;10.092;2022-11-12T09:37:49;5.33;;;3.10;;
12956;SDS011;6543;48.836;10.092;2022-11-12T09:40:18;3.40;;;2.87;;
12956;SDS011;6543;48.836;10.092;2022-11-12T09:42:45;3.90;;;3.57;;
12956;SDS011;6543;48.836;10.092;2022-11-12T09:45:17;6.07;;;4.40;;
12956;SDS011;6543;48.836;10.092;2022-11-12T09:47:48;26.60;;;8.93;;
12956;SDS011;6543;48.836;10.092;2022-11-12T09:50:20;6.57;;;3.93;;
12956;SDS011;6543;48.836;10.092;2022-11-12T09:52:54;4.73;;;3.73;;
12956;SDS011;6543;48.836;10.092;2022-11-12T09:55:30;4.93;;;4.03;;
12956;SDS011;6543;48.836;10.092;2022-11-12T09:57:59;7.20;;;3.87;;
12956;SDS011;6543;48.836;10.092;2022-11-12T10:00:27;4.53;;;4.03;;
12956;SDS011;6543;48.836;10.092;2022-11-12T10:02:57;3.90;;;3.33;;
12956;SDS011;6543;48.836;10.092;2022-11-12T10:05:32;4.27;;;3.07;;
12956;SDS011;6543;48.836;10.092;2022-11-12T10:08:04;4.20;;;3.80;;
12956;SDS011;6543;48.836;10.092;2022-11-12T10:10:57;4.70;;;3.90;;
12956;SDS011;6543;48.836;10.092;2022-11-12T10:13:34;5.80;;;3.97;;
12956;SDS011;6543;48.836;10.092;2022-11-12T10:16:14;5.83;;;3.87;;
12956;SDS011;6543;48.836;10.092;2022-11-12T10:19:22;4.63;;;3.77;;
12956;SDS011;6543;48.836;10.092;2022-11-12T10:22:10;7.17;;;4.60;;
12956;SDS011;6543;48.836;10.092;2022-11-12T10:24:45;9.33;;;4.53;;
12956;SDS011;6543;48.836;10.092;2022-11-12T10:27:16;8.33;;;4.60;;
12956;SDS011;6543;48.836;10.092;2022-11-12T10:29:48;4.83;;;4.00;;
12956;SDS011;6543;48.836;10.092;2022-11-12T10:32:18;7.63;;;4.73;;
12956;SDS011;6543;48.836;10.092;2022-11-12T10:34:45;4.63;;;4.23;;
12956;SDS011;6543;48.836;10.092;2022-11-12T10:37:13;5.00;;;4.33;;
12956;SDS011;6543;48.836;10.092;2022-11-12T10:39:45;4.63;;;4.10;;
12956;SDS011;6543;48.836;10.092;2022-11-12T10:42:13;4.33;;;3.93;;
12956;SDS011;6543;48.836;10.092;2022-11-12T10:44:42;5.37;;;4.60;;
12956;SDS011;6543;48.836;10.092;2022-11-12T10:47:26;5.10;;;3.97;;
12956;SDS011;6543;48.836;10.092;2022-11-12T10:53:00;4.57;;;4.17;;
12956;SDS011;6543;48.836;10.092;2022-11-12T10:55:29;4.13;;;3.73;;
12956;SDS011;6543;48.836;10.092;2022-11-12T10:58:19;5.87;;;5.27;;
12956;SDS011;6543;48.836;10.092;2022-11-12T11:00:56;5.37;;;4.87;;
12956;SDS011;6543;48.836;10.092;2022-11-12T11:03:25;6.13;;;4.63;;
12956;SDS011;6543;48.836;10.092;2022-11-12T11:05:56;5.73;;;4.00;;
12956;SDS011;6543;48.836;10.092;2022-11-12T11:08:31;5.13;;;4.27;;
12956;SDS011;6543;48.836;10.092;2022-11-12T11:11:16;6.90;;;3.93;;
12956;SDS011;6543;48.836;10.092;2022-11-12T11:13:50;8.37;;;4.20;;
12956;SDS011;6543;48.836;10.092;2022-11-12T11:16:18;6.10;;;4.57;;
12956;SDS011;6543;48.836;10.092;2022-11-12T11:18:48;4.97;;;4.17;;
12956;SDS011;6543;48.836;10.092;2022-11-12T11:24:21;5.13;;;4.20;;
12956;SDS011;6543;48.836;10.092;2022-11-12T11:27:08;5.40;;;4.07;;
12956;SDS011;6543;48.836;10.092;2022-11-12T11:29:43;4.30;;;3.90;;
12956;SDS011;6543;48.836;10.092;2022-11-12T11:32:34;6.63;;;3.77;;
12956;SDS011;6543;48.836;10.092;2022-11-12T11:35:27;5.70;;;4.50;;
12956;SDS011;6543;48.836;10.092;2022-11-12T11:38:04;5.07;;;4.27;;
12956;SDS011;6543;48.836;10.092;2022-11-12T11:40:42;5.77;;;4.23;;
12956;SDS011;6543;48.836;10.092;2022-11-12T11:43:22;4.90;;;4.40;;
12956;SDS011;6543;48.836;10.092;2022-11-12T11:46:04;4.13;;;3.83;;
12956;SDS011;6543;48.836;10.092;2022-11-12T11:48:44;4.40;;;3.70;;
12956;SDS011;6543;48.836;10.092;2022-11-12T11:51:23;3.77;;;3.47;;
12956;SDS011;6543;48.836;10.092;2022-11-12T11:54:12;4.03;;;3.67;;
12956;SDS011;6543;48.836;10.092;2022-11-12T11:56:50;5.73;;;3.23;;
12956;SDS011;6543;48.836;10.092;2022-11-12T11:59:27;3.97;;;3.57;;
12956;SDS011;6543;48.836;10.092;2022-11-12T12:02:11;3.97;;;3.43;;
12956;SDS011;6543;48.836;10.092;2022-11-12T12:05:00;3.80;;;3.40;;
12956;SDS011;6543;48.836;10.092;2022-11-12T12:07:44;4.17;;;3.63;;
12956;SDS011;6543;48.836;10.092;2022-11-12T12:10:19;4.63;;;3.63;;
12956;SDS011;6543;48.836;10.092;2022-11-12T12:12:53;3.63;;;3.33;;
12956;SDS011;6543;48.836;10.092;2022-11-12T12:15:32;3.63;;;3.00;;
12956;SDS011;6543;48.836;10.092;2022-11-12T12:18:12;4.10;;;3.70;;
12956;SDS011;6543;48.836;10.092;2022-11-12T12:20:51;4.23;;;3.83;;
12956;SDS011;6543;48.836;10.092;2022-11-12T12:23:25;3.30;;;3.10;;
12956;SDS011;6543;48.836;10.092;2022-11-12T12:25:57;3.93;;;3.63;;
12956;SDS011;6543;48.836;10.092;2022-11-12T12:28:32;3.63;;;3.07;;
12956;SDS011;6543;48.836;10.092;2022-11-12T12:31:03;3.30;;;3.00;;
12956;SDS011;6543;48.836;10.092;2022-11-12T12:33:39;3.70;;;3.40;;
12956;SDS011;6543;48.836;10.092;2022-11-12T12:36:10;3.77;;;3.47;;
12956;SDS011;6543;48.836;10.092;2022-11-12T12:38:40;3.70;;;3.40;;
12956;SDS011;6543;48.836;10.092;2022-11-12T12:41:13;3.83;;;3.30;;
12956;SDS011;6543;48.836;10.092;2022-11-12T12:43:44;3.73;;;3.43;;
12956;SDS011;6543;48.836;10.092;2022-11-12T12:46:14;4.23;;;3.37;;
12956;SDS011;6543;48.836;10.092;2022-11-12T12:48:47;4.47;;;4.07;;
12956;SDS011;6543;48.836;10.092;2022-11-12T12:51:16;3.50;;;3.20;;
12956;SDS011;6543;48.836;10.092;2022-11-12T12:53:43;3.80;;;3.50;;
12956;SDS011;6543;48.836;10.092;2022-11-12T12:59:19;4.33;;;3.10;;
12956;SDS011;6543;48.836;10.092;2022-11-12T13:01:53;3.90;;;3.60;;
12956;SDS011;6543;48.836;10.092;2022-11-12T13:07:37;3.70;;;3.40;;
12956;SDS011;6543;48.836;10.092;2022-11-12T13:13:27;3.90;;;3.53;;
12956;SDS011;6543;48.836;10.092;2022-11-12T13:15:57;3.50;;;2.70;;
12956;SDS011;6543;48.836;10.092;2022-11-12T13:21:29;4.53;;;3.10;;
12956;SDS011;6543;48.836;10.092;2022-11-12T13:23:57;3.27;;;3.03;;
12956;SDS011;6543;48.836;10.092;2022-11-12T13:26:46;3.63;;;2.90;;
12956;SDS011;6543;48.836;10.092;2022-11-12T13:38:00;4.00;;;3.60;;
12956;SDS011;6543;48.836;10.092;2022-11-12T13:40:40;4.90;;;3.40;;
12956;SDS011;6543;48.836;10.092;2022-11-12T13:43:11;4.80;;;3.93;;
12956;SDS011;6543;48.836;10.092;2022-11-12T13:45:44;4.30;;;3.90;;
12956;SDS011;6543;48.836;10.092;2022-11-12T13:48:15;4.43;;;3.73;;
12956;SDS011;6543;48.836;10.092;2022-11-12T13:50:48;4.73;;;4.10;;
12956;SDS011;6543;48.836;10.092;2022-11-12T13:53:21;5.00;;;3.60;;
12956;SDS011;6543;48.836;10.092;2022-11-12T13:55:51;7.47;;;3.53;;
12956;SDS011;6543;48.836;10.092;2022-11-12T13:58:23;3.83;;;3.43;;
12956;SDS011;6543;48.836;10.092;2022-11-12T14:00:52;4.30;;;3.90;;
12956;SDS011;6543;48.836;10.092;2022-11-12T14:03:20;3.83;;;3.30;;
12956;SDS011;6543;48.836;10.092;2022-11-12T14:05:49;3.30;;;3.00;;
12956;SDS011;6543;48.836;10.092;2022-11-12T14:11:14;4.03;;;3.67;;
12956;SDS011;6543;48.836;10.092;2022-11-12T14:14:00;5.07;;;3.40;;
12956;SDS011;6543;48.836;10.092;2022-11-12T14:16:40;3.77;;;3.47;;
12956;SDS011;6543;48.836;10.092;2022-11-12T14:22:26;4.07;;;3.50;;
12956;SDS011;6543;48.836;10.092;2022-11-12T14:25:09;3.57;;;3.27;;
12956;SDS011;6543;48.836;10.092;2022-11-12T14:27:41;3.57;;;3.27;;
12956;SDS011;6543;48.836;10.092;2022-11-12T14:30:12;3.83;;;3.20;;
12956;SDS011;6543;48.836;10.092;2022-11-12T14:32:42;3.53;;;3.23;;
12956;SDS011;6543;48.836;10.092;2022-11-12T14:38:08;2.90;;;2.70;;
12956;SDS011;6543;48.836;10.092;2022-11-12T14:40:42;3.70;;;3.30;;
12956;SDS011;6543;48.836;10.092;2022-11-12T14:43:25;3.47;;;3.17;;
12956;SDS011;6543;48.836;10.092;2022-11-12T14:45:58;2.60;;;2.40;;
12956;SDS011;6543;48.836;10.092;2022-11-12T14:48:26;3.57;;;3.20;;
12956;SDS011;6543;48.836;10.092;2022-11-12T14:50:55;4.23;;;3.50;;
12956;SDS011;6543;48.836;10.092;2022-11-12T14:53:28;5.03;;;3.50;;
12956;SDS011;6543;48.836;10.092;2022-11-12T14:55:58;4.80;;;3.27;;
12956;SDS011;6543;48.836;10.092;2022-11-12T14:58:28;3.80;;;3.50;;
12956;SDS011;6543;48.836;10.092;2022-11-12T15:00:55;3.67;;;3.23;;
12956;SDS011;6543;48.836;10.092;2022-11-12T15:03:23;4.07;;;3.67;;
12956;SDS011;6543;48.836;10.092;2022-11-12T15:05:57;5.20;;;3.87;;
12956;SDS011;6543;48.836;10.092;2022-11-12T15:08:32;4.10;;;3.70;;
12956;SDS011;6543;48.836;10.092;2022-11-12T15:11:14;4.70;;;3.70;;
12956;SDS011;6543;48.836;10.092;2022-11-12T15:13:45;10.10;;;3.90;;
12956;SDS011;6543;48.836;10.092;2022-11-12T15:16:18;4.90;;;4.40;;
12956;SDS011;6543;48.836;10.092;2022-11-12T15:18:59;4.47;;;4.07;;
12956;SDS011;6543;48.836;10.092;2022-11-12T15:21:47;4.57;;;3.70;;
12956;SDS011;6543;48.836;10.092;2022-11-12T15:24:16;4.57;;;4.17;;
12956;SDS011;6543;48.836;10.092;2022-11-12T15:26:47;4.70;;;4.10;;
12956;SDS011;6543;48.836;10.092;2022-11-12T15:29:26;5.07;;;4.30;;
12956;SDS011;6543;48.836;10.092;2022-11-12T15:31:56;5.37;;;4.50;;
12956;SDS011;6543;48.836;10.092;2022-11-12T15:34:25;7.80;;;4.43;;
12956;SDS011;6543;48.836;10.092;2022-11-12T15:36:54;4.13;;;3.73;;
12956;SDS011;6543;48.836;10.092;2022-11-12T15:39:22;7.17;;;4.40;;
12956;SDS011;6543;48.836;10.092;2022-11-12T15:41:57;6.23;;;5.03;;